Time;durP1;ratioP1;P1;durP2;ratioP2;P2;SDS_P1;SDS_P2;PMS_P1;PMS_P2;Temp;Humidity;BMP_temperature;BMP_pressure;BME280_temperature;BME280_humidity;BME280_pressure;Samples;Min_cycle;Max_cycle;Signal;HPM_P1;HPM_P2
2021/06/12 00:01:39;;;;;;;;;1.75;1.75;;;;;24.09;47.58;101651.75;5120889;27;45305;-53
2021/06/12 00:04:05;;;;;;;;;2.25;1.75;;;;;24.02;47.36;101640.50;5121414;27;45248;-48
2021/06/12 00:06:30;;;;;;;;;1.75;1.75;;;;;24.02;47.57;101653.03;5121202;27;45588;-50
2021/06/12 00:08:55;;;;;;;;;2.00;2.00;;;;;23.98;47.56;101652.34;5120980;27;46180;-49
2021/06/12 00:11:21;;;;;;;;;2.00;1.00;;;;;23.97;47.77;101649.75;5103732;27;45428;-49
2021/06/12 00:13:47;;;;;;;;;1.00;1.00;;;;;23.93;47.55;101650.91;5102157;27;45342;-51
2021/06/12 00:16:12;;;;;;;;;2.50;2.50;;;;;23.89;47.60;101652.00;5103929;27;45576;-50
2021/06/12 00:18:38;;;;;;;;;2.00;2.00;;;;;23.76;47.77;101639.25;5103812;27;45430;-52
2021/06/12 00:21:03;;;;;;;;;3.25;2.75;;;;;23.82;48.13;101657.69;5104058;27;45322;-47
2021/06/12 00:23:29;;;;;;;;;3.00;2.00;;;;;23.84;47.97;101662.97;5104148;27;45300;-48
2021/06/12 00:25:54;;;;;;;;;2.00;2.00;;;;;23.83;48.09;101666.59;5104018;27;45316;-52
2021/06/12 00:28:20;;;;;;;;;4.25;4.25;;;;;23.87;47.75;101662.78;5103659;27;45421;-49
2021/06/12 00:30:45;;;;;;;;;1.75;1.00;;;;;23.92;47.68;101671.47;5103803;27;45223;-50
2021/06/12 00:33:11;;;;;;;;;2.25;2.25;;;;;23.90;47.50;101659.94;5103903;27;45421;-50
2021/06/12 00:35:36;;;;;;;;;2.00;2.00;;;;;23.97;48.20;101661.34;5103836;27;45219;-49
2021/06/12 00:38:02;;;;;;;;;2.00;2.00;;;;;23.96;47.83;101658.75;5085213;27;45912;-50
2021/06/12 00:40:27;;;;;;;;;2.00;2.00;;;;;23.98;47.73;101662.22;5103834;27;45263;-48
2021/06/12 00:42:53;;;;;;;;;3.50;2.00;;;;;23.97;47.75;101669.41;5103631;27;45306;-50
2021/06/12 00:45:22;;;;;;;;;3.00;1.00;;;;;23.98;47.82;101673.81;5103505;27;45215;-52
2021/06/12 00:47:48;;;;;;;;;1.00;1.00;;;;;23.99;47.86;101678.25;5085045;27;46838;-48
2021/06/12 00:50:15;;;;;;;;;2.50;2.50;;;;;23.99;47.90;101670.19;5103389;27;45326;-51
2021/06/12 00:52:41;;;;;;;;;3.00;1.75;;;;;23.98;47.65;101673.81;5103415;27;45236;-52
2021/06/12 00:55:09;;;;;;;;;2.25;2.25;;;;;24.00;47.70;101679.97;5114270;27;45292;-50
2021/06/12 00:57:36;;;;;;;;;3.75;2.00;;;;;24.01;47.80;101681.72;5123681;27;46971;-48
2021/06/12 01:00:02;;;;;;;;;2.00;2.00;;;;;23.98;47.73;101684.56;5123826;27;45426;-48
2021/06/12 01:02:28;;;;;;;;;2.00;1.25;;;;;23.96;48.00;101682.91;5124051;27;45337;-50
2021/06/12 01:04:53;;;;;;;;;2.00;2.00;;;;;23.92;48.56;101678.69;5123982;27;45313;-48
2021/06/12 01:07:18;;;;;;;;;3.00;3.00;;;;;23.88;48.51;101672.56;5123789;27;46289;-48
2021/06/12 01:09:44;;;;;;;;;2.25;2.00;;;;;23.80;48.66;101658.75;5123753;27;45235;-53
2021/06/12 01:12:28;;;;;;;;;2.25;2.25;;;;;23.75;48.59;101672.41;5123791;27;45248;-49
2021/06/12 01:15:04;;;;;;;;;3.75;3.50;;;;;23.69;49.17;101667.38;5109672;27;45244;-51
2021/06/12 01:17:42;;;;;;;;;3.00;3.00;;;;;23.63;49.12;101660.50;5111049;27;46236;-51
2021/06/12 01:20:26;;;;;;;;;3.50;3.00;;;;;23.58;49.11;101665.25;5123462;27;45293;-55
2021/06/12 01:23:09;;;;;;;;;5.00;3.50;;;;;23.52;49.51;101660.22;5123881;27;45254;-59
2021/06/12 01:25:54;;;;;;;;;3.00;3.00;;;;;23.47;49.33;101667.66;5123759;27;45295;-55
2021/06/12 01:28:22;;;;;;;;;3.50;3.00;;;;;23.43;50.00;101653.56;5123317;27;45811;-53
2021/06/12 01:30:52;;;;;;;;;4.00;4.00;;;;;23.40;49.97;101658.25;5123279;27;45319;-49
2021/06/12 01:33:18;;;;;;;;;3.50;3.50;;;;;23.32;49.93;101643.44;5123481;27;45271;-49
2021/06/12 01:35:50;;;;;;;;;2.00;2.00;;;;;23.33;49.91;101661.25;5123459;27;45385;-47
2021/06/12 01:38:25;;;;;;;;;3.00;2.75;;;;;23.29;49.68;101664.16;5104789;27;45970;-49
2021/06/12 01:40:53;;;;;;;;;3.75;3.75;;;;;23.26;49.91;101657.16;5123281;27;45310;-49
2021/06/12 01:43:20;;;;;;;;;3.00;3.00;;;;;23.19;50.11;101651.28;5123449;27;45325;-48
2021/06/12 01:45:47;;;;;;;;;4.00;4.00;;;;;23.21;50.11;101659.22;5123055;27;45241;-49
2021/06/12 01:48:15;;;;;;;;;2.50;2.00;;;;;23.18;49.83;101651.31;5123002;27;45303;-48
2021/06/12 01:50:41;;;;;;;;;2.00;2.00;;;;;23.13;49.78;101648.00;5123151;27;45365;-48
2021/06/12 01:53:08;;;;;;;;;4.50;3.00;;;;;23.10;50.53;101658.88;5104885;27;45341;-50
2021/06/12 01:55:36;;;;;;;;;2.25;2.00;;;;;23.08;50.18;101652.72;5122911;27;45426;-50
2021/06/12 01:58:06;;;;;;;;;1.00;1.00;;;;;23.01;50.10;101666.44;5104601;27;48261;-50
2021/06/12 02:00:32;;;;;;;;;4.00;4.00;;;;;22.92;50.31;101656.22;5122794;27;45280;-49
2021/06/12 02:03:00;;;;;;;;;3.25;3.25;;;;;22.91;50.40;101662.53;5123080;27;45220;-50
2021/06/12 02:05:26;;;;;;;;;3.00;3.00;;;;;22.82;50.51;101645.09;5122812;27;45430;-47
2021/06/12 02:07:53;;;;;;;;;2.75;2.75;;;;;22.86;50.70;101664.56;5122998;27;45311;-47
2021/06/12 02:10:29;;;;;;;;;3.25;2.25;;;;;22.83;51.15;101664.72;5122776;27;45516;-48
2021/06/12 02:12:55;;;;;;;;;2.50;2.50;;;;;22.82;50.56;101660.34;5122812;27;45347;-48
2021/06/12 02:15:22;;;;;;;;;5.00;3.25;;;;;22.80;50.99;101662.22;5105485;27;45296;-48
2021/06/12 02:17:49;;;;;;;;;4.25;2.50;;;;;22.73;50.96;101657.16;5102035;27;45320;-48
2021/06/12 02:20:15;;;;;;;;;2.75;2.75;;;;;22.76;51.14;101666.00;5101914;27;45298;-49
2021/06/12 02:22:44;;;;;;;;;4.00;3.00;;;;;22.74;51.37;101660.69;5102193;27;45231;-48
2021/06/12 02:25:11;;;;;;;;;4.00;4.00;;;;;22.72;51.65;101668.81;5083619;27;45487;-48
2021/06/12 02:27:40;;;;;;;;;5.50;5.50;;;;;22.66;51.21;101666.44;5101977;27;46705;-48
2021/06/12 02:30:07;;;;;;;;;2.25;2.25;;;;;22.64;51.21;101679.06;5083152;27;45978;-50
2021/06/12 02:32:38;;;;;;;;;3.75;3.75;;;;;22.62;51.29;101677.41;5102040;27;45378;-48
2021/06/12 02:35:08;;;;;;;;;5.00;3.00;;;;;22.57;51.42;101677.63;5101159;27;45528;-49
2021/06/12 02:37:33;;;;;;;;;4.00;2.75;;;;;22.54;51.42;101680.44;5101752;27;46450;-47
2021/06/12 02:39:59;;;;;;;;;4.25;4.25;;;;;22.51;51.22;101684.16;5101731;27;45188;-48
2021/06/12 02:42:24;;;;;;;;;4.00;4.00;;;;;22.47;51.88;101685.25;5101972;27;45378;-48
2021/06/12 02:44:49;;;;;;;;;2.25;2.25;;;;;22.48;51.35;101691.50;5101545;27;45453;-48
2021/06/12 02:47:16;;;;;;;;;3.25;3.25;;;;;22.45;51.49;101689.84;5083340;27;46165;-49
2021/06/12 02:49:43;;;;;;;;;3.00;3.00;;;;;22.45;51.50;101683.59;5101624;27;45314;-51
2021/06/12 02:52:17;;;;;;;;;3.25;3.25;;;;;22.40;51.06;101682.03;5101720;27;45280;-48
2021/06/12 02:54:45;;;;;;;;;2.00;2.00;;;;;22.39;51.62;101690.13;5109014;27;45333;-48
2021/06/12 02:57:12;;;;;;;;;3.25;3.25;;;;;22.36;51.58;101683.09;5121840;27;46080;-48
2021/06/12 02:59:41;;;;;;;;;2.75;2.75;;;;;22.33;51.62;101683.22;5122156;27;45253;-48
2021/06/12 03:02:10;;;;;;;;;2.25;2.00;;;;;22.29;51.41;101672.72;5121990;27;45279;-48
2021/06/12 03:04:37;;;;;;;;;2.50;2.50;;;;;22.23;51.44;101668.56;5103628;27;45497;-48
2021/06/12 03:07:05;;;;;;;;;3.00;3.00;;;;;22.21;51.30;101687.38;5121810;27;45800;-49
2021/06/12 03:09:30;;;;;;;;;2.00;2.00;;;;;22.19;51.62;101681.22;5122002;27;45423;-52
2021/06/12 03:11:57;;;;;;;;;3.25;3.00;;;;;22.15;51.55;101684.13;5121979;27;45428;-51
2021/06/12 03:14:24;;;;;;;;;4.50;2.00;;;;;22.13;51.27;101678.00;5112175;27;45334;-51
2021/06/12 03:16:50;;;;;;;;;3.75;3.75;;;;;22.12;51.16;101670.91;5101195;27;46234;-51
2021/06/12 03:19:16;;;;;;;;;4.00;4.00;;;;;22.08;51.26;101665.66;5100987;27;45196;-49
2021/06/12 03:21:43;;;;;;;;;1.75;1.75;;;;;22.06;50.95;101661.34;5082979;27;45272;-50
2021/06/12 03:24:10;;;;;;;;;2.00;2.00;;;;;22.05;51.24;101664.97;5100975;27;45227;-50
2021/06/12 03:26:36;;;;;;;;;2.25;2.25;;;;;21.99;51.10;101655.44;5100877;27;45414;-46
2021/06/12 03:29:02;;;;;;;;;2.50;2.50;;;;;22.01;50.74;101658.00;5100966;27;45496;-50
2021/06/12 03:31:29;;;;;;;;;4.50;3.00;;;;;21.96;51.13;101660.06;5100801;27;45422;-50
2021/06/12 03:33:55;;;;;;;;;2.00;2.00;;;;;21.97;51.05;101667.13;5100873;27;45513;-52
2021/06/12 03:36:24;;;;;;;;;3.50;2.00;;;;;21.94;51.04;101667.28;5100773;27;46487;-50
2021/06/12 03:38:50;;;;;;;;;3.75;2.50;;;;;21.92;51.15;101673.59;5101062;27;45282;-52
2021/06/12 03:41:16;;;;;;;;;2.00;2.00;;;;;21.86;50.96;101673.88;5100888;27;45376;-50
2021/06/12 03:43:41;;;;;;;;;2.00;2.00;;;;;21.86;51.43;101676.56;5100760;27;45600;-51
2021/06/12 03:46:08;;;;;;;;;3.00;2.75;;;;;21.83;51.29;101687.38;5099304;27;46019;-52
2021/06/12 03:48:34;;;;;;;;;1.00;1.00;;;;;21.80;50.97;101682.19;5100745;27;45334;-52
2021/06/12 03:51:01;;;;;;;;;4.00;3.00;;;;;21.81;51.00;101688.38;5100850;27;45282;-52
2021/06/12 03:53:31;;;;;;;;;5.00;5.00;;;;;21.74;51.18;101688.66;5100594;27;45253;-52
2021/06/12 03:56:01;;;;;;;;;2.75;2.75;;;;;21.73;51.04;101686.06;5118401;27;45524;-51
2021/06/12 03:58:26;;;;;;;;;3.50;3.00;;;;;21.72;51.82;101687.91;5121129;27;45228;-49
2021/06/12 04:00:52;;;;;;;;;2.00;1.00;;;;;21.72;51.65;101690.56;5121122;27;45299;-51
2021/06/12 04:03:18;;;;;;;;;2.25;2.00;;;;;21.74;51.02;101695.84;5121157;27;45340;-52
2021/06/12 04:05:43;;;;;;;;;2.75;2.75;;;;;21.72;51.36;101693.25;5120792;27;46045;-50
2021/06/12 04:08:09;;;;;;;;;2.00;0.50;;;;;21.71;51.52;101702.19;5121256;27;45368;-50
2021/06/12 04:10:34;;;;;;;;;1.00;1.00;;;;;21.70;51.54;101718.31;5121109;27;45154;-49
2021/06/12 04:13:00;;;;;;;;;1.75;1.00;;;;;21.69;51.14;101706.75;5120700;27;45397;-51
2021/06/12 04:15:25;;;;;;;;;1.00;1.00;;;;;21.66;51.42;101700.66;5102133;27;46048;-51
2021/06/12 04:17:58;;;;;;;;;4.00;1.25;;;;;21.69;51.56;101706.75;5100338;27;45366;-52
2021/06/12 04:20:24;;;;;;;;;1.25;1.25;;;;;21.71;51.06;101717.38;5100421;27;45227;-49
2021/06/12 04:22:50;;;;;;;;;1.75;1.75;;;;;21.70;51.23;101708.50;5100197;27;45232;-51
2021/06/12 04:25:15;;;;;;;;;1.75;1.75;;;;;21.70;50.81;101708.50;5100204;27;45520;-49
2021/06/12 04:27:41;;;;;;;;;1.00;1.00;;;;;21.68;50.91;101707.69;5100385;27;45345;-48
2021/06/12 04:30:07;;;;;;;;;2.00;2.00;;;;;21.65;50.71;101702.47;5100157;27;45334;-51
2021/06/12 04:32:32;;;;;;;;;2.00;2.00;;;;;21.61;50.89;101708.03;5100191;27;45515;-51
2021/06/12 04:34:58;;;;;;;;;1.00;1.00;;;;;21.62;50.96;101710.63;5099919;27;46439;-51
2021/06/12 04:37:23;;;;;;;;;2.00;1.00;;;;;21.62;51.23;101709.78;5099877;27;45334;-52
2021/06/12 04:39:48;;;;;;;;;4.00;2.75;;;;;21.63;51.29;101703.50;5099975;27;45569;-51
2021/06/12 04:42:14;;;;;;;;;1.00;1.00;;;;;21.58;51.37;101712.59;5099985;27;45315;-50
2021/06/12 04:44:39;;;;;;;;;1.00;1.00;;;;;21.58;51.22;101709.03;5099604;27;45342;-48
2021/06/12 04:47:05;;;;;;;;;1.00;1.00;;;;;21.56;51.19;101700.25;5100145;27;45294;-49
2021/06/12 04:49:30;;;;;;;;;2.00;2.00;;;;;21.50;51.23;101708.50;5099916;27;45516;-50
2021/06/12 04:51:55;;;;;;;;;44.25;38.50;;;;;21.44;51.73;101709.63;5099906;27;45443;-52
2021/06/12 04:54:20;;;;;;;;;68.67;56.33;;;;;21.48;52.16;101715.72;5086722;27;47020;-52
2021/06/12 04:56:46;;;;;;;;;66.67;54.33;;;;;21.49;51.83;101714.78;5120644;27;45333;-52
2021/06/12 04:59:11;;;;;;;;;7.75;6.00;;;;;21.49;51.89;101717.47;5123624;27;45445;-51
2021/06/12 05:01:36;;;;;;;;;82.33;77.00;;;;;21.49;52.08;101712.09;5123768;27;45571;-50
2021/06/12 05:04:02;;;;;;;;;23.25;23.25;;;;;21.51;51.99;101726.25;5123777;27;46186;-48
2021/06/12 05:06:28;;;;;;;;;9.25;9.25;;;;;21.49;51.75;101720.13;5123845;27;45413;-49
2021/06/12 05:08:53;;;;;;;;;9.00;8.75;;;;;21.54;51.49;101724.31;5123738;27;45291;-50
2021/06/12 05:11:18;;;;;;;;;23.50;22.25;;;;;21.54;52.03;101718.13;5123709;27;45201;-51
2021/06/12 05:13:44;;;;;;;;;63.00;51.00;;;;;21.52;52.54;101715.53;5119770;27;45302;-51
2021/06/12 05:16:09;;;;;;;;;58.25;48.25;;;;;21.50;52.10;101727.22;5102881;27;45315;-50
2021/06/12 05:18:43;;;;;;;;;46.25;39.75;;;;;21.50;52.19;101729.91;5081130;27;45267;-51
2021/06/12 05:21:10;;;;;;;;;52.75;44.25;;;;;21.52;52.32;101731.56;5082523;27;45417;-51
2021/06/12 05:23:36;;;;;;;;;29.00;27.50;;;;;21.50;51.83;101722.72;5082356;27;46230;-49
2021/06/12 05:26:05;;;;;;;;;31.25;30.50;;;;;21.56;51.88;101727.84;5082376;27;45331;-50
2021/06/12 05:28:31;;;;;;;;;3.75;3.75;;;;;21.58;51.53;101730.44;5080975;27;45579;-48
2021/06/12 05:30:56;;;;;;;;;4.25;4.25;;;;;21.56;51.97;101727.84;5082332;27;45405;-48
2021/06/12 05:33:23;;;;;;;;;69.50;54.00;;;;;21.58;51.67;101730.44;5082241;27;46035;-50
2021/06/12 05:35:52;;;;;;;;;34.50;32.25;;;;;21.57;52.06;101726.00;5082333;27;45311;-52
2021/06/12 05:38:18;;;;;;;;;21.25;20.25;;;;;21.61;52.18;101732.09;5082532;27;45328;-48
2021/06/12 05:40:45;;;;;;;;;29.75;29.25;;;;;21.63;52.03;101725.75;5093149;27;45276;-49
2021/06/12 05:43:11;;;;;;;;;19.50;19.50;;;;;21.66;52.27;101738.09;5082988;27;46489;-46
2021/06/12 05:45:36;;;;;;;;;13.75;12.75;;;;;21.66;52.02;101736.31;5083069;27;45296;-51
2021/06/12 05:48:02;;;;;;;;;14.75;14.75;;;;;21.66;51.65;101733.66;5082147;27;45442;-58
2021/06/12 05:50:27;;;;;;;;;3.00;3.00;;;;;21.68;51.92;101722.88;5082353;27;45490;-56
2021/06/12 05:52:53;;;;;;;;;2.00;2.00;;;;;21.72;51.51;101719.09;5081972;27;46060;-57
2021/06/12 05:55:19;;;;;;;;;78.00;63.67;;;;;21.76;52.07;101720.72;5094606;27;45278;-57
2021/06/12 05:57:44;;;;;;;;;12.75;12.00;;;;;21.80;51.91;101732.13;5102680;27;45406;-57
2021/06/12 06:00:10;;;;;;;;;4.00;4.00;;;;;21.82;51.15;101719.56;5100891;27;45470;-58
2021/06/12 06:02:35;;;;;;;;;7.00;7.00;;;;;21.86;51.23;101732.72;5100820;27;48244;-57
2021/06/12 06:05:01;;;;;;;;;49.75;42.00;;;;;21.86;51.13;101739.88;5102180;27;45361;-58
2021/06/12 06:07:26;;;;;;;;;2.00;2.00;;;;;21.86;51.17;101745.22;5102369;27;45464;-53
2021/06/12 06:09:52;;;;;;;;;18.50;18.50;;;;;21.88;51.26;101738.84;5101073;27;45369;-48
2021/06/12 06:12:17;;;;;;;;;29.50;27.25;;;;;21.93;51.17;101738.66;5117561;27;47450;-52
2021/06/12 06:14:42;;;;;;;;;28.00;26.50;;;;;21.96;51.10;101735.84;5089778;27;45337;-53
2021/06/12 06:17:08;;;;;;;;;4.00;4.00;;;;;21.97;50.53;101742.91;5081677;27;45375;-53
2021/06/12 06:19:33;;;;;;;;;25.75;21.75;;;;;21.98;51.30;101738.44;5099779;27;45273;-50
2021/06/12 06:21:59;;;;;;;;;8.50;8.50;;;;;22.10;50.95;101739.69;5102054;27;46092;-47
2021/06/12 06:24:24;;;;;;;;;20.00;18.75;;;;;22.14;51.04;101743.94;5083751;27;45326;-52
2021/06/12 06:26:50;;;;;;;;;3.50;2.50;;;;;22.24;50.59;101740.75;5066626;27;45406;-45
2021/06/12 06:29:15;;;;;;;;;3.00;3.00;;;;;;;;5101865;27;45391;-48
2021/06/12 06:31:41;;;;;;;;;13.25;11.00;;;;;22.37;50.26;101740.22;5102040;27;45376;-45
2021/06/12 06:34:06;;;;;;;;;6.00;6.00;;;;;22.42;50.23;101743.53;5101863;27;45303;-47
2021/06/12 06:36:31;;;;;;;;;59.75;48.75;;;;;22.44;50.33;101746.13;5101969;27;45231;-46
2021/06/12 06:38:57;;;;;;;;;6.25;5.50;;;;;22.43;49.75;101747.94;5101927;27;45429;-49
2021/06/12 06:41:22;;;;;;;;;50.75;40.25;;;;;22.38;49.45;101750.84;5101605;27;46176;-45
2021/06/12 06:43:48;;;;;;;;;68.75;55.75;;;;;22.40;49.75;101756.13;5101345;27;45219;-46
2021/06/12 06:46:13;;;;;;;;;7.50;7.50;;;;;22.43;49.78;101755.09;5101634;27;45249;-46
2021/06/12 06:48:38;;;;;;;;;13.75;11.25;;;;;22.45;49.31;101763.94;5101521;27;45329;-45
2021/06/12 06:51:04;;;;;;;;;11.50;11.50;;;;;22.45;49.42;101753.22;5101360;27;46959;-46
2021/06/12 06:53:33;;;;;;;;;10.00;10.00;;;;;22.49;49.22;101749.44;5101329;27;45292;-44
2021/06/12 06:56:03;;;;;;;;;14.00;11.25;;;;;22.51;49.92;101751.09;5119560;27;45349;-44
2021/06/12 06:58:28;;;;;;;;;11.75;10.00;;;;;22.56;49.54;101753.56;5121782;27;45487;-53
2021/06/12 07:00:54;;;;;;;;;12.00;9.75;;;;;22.62;49.28;101755.94;5121668;27;46208;-57
2021/06/12 07:03:19;;;;;;;;;60.00;49.00;;;;;22.68;49.79;101750.28;5103375;27;45349;-60
2021/06/12 07:05:45;;;;;;;;;74.00;64.00;;;;;22.76;49.89;101754.41;5122023;27;45144;-56
2021/06/12 07:08:10;;;;;;;;;20.75;19.50;;;;;22.83;49.79;101753.13;5103497;27;45663;-56
2021/06/12 07:10:36;;;;;;;;;7.50;7.50;;;;;22.88;49.43;101759.16;5121695;27;45327;-59
2021/06/12 07:13:02;;;;;;;;;5.50;5.50;;;;;22.99;49.42;101759.50;5103065;27;45398;-57
2021/06/12 07:15:28;;;;;;;;;4.50;3.75;;;;;23.08;48.90;101759.94;5102731;27;45395;-58
2021/06/12 07:17:54;;;;;;;;;3.75;3.25;;;;;23.15;48.73;101764.94;5101102;27;45363;-58
2021/06/12 07:20:19;;;;;;;;;9.00;9.00;;;;;23.23;48.52;101766.38;5100753;27;46064;-62
2021/06/12 07:22:45;;;;;;;;;12.50;12.00;;;;;23.27;49.04;101774.19;5100955;27;45237;-60
2021/06/12 07:25:10;;;;;;;;;11.75;11.75;;;;;23.35;48.37;101769.28;5101078;27;45288;-60
2021/06/12 07:27:36;;;;;;;;;11.75;11.25;;;;;23.40;48.47;101762.84;5100781;27;45427;-58
2021/06/12 07:30:02;;;;;;;;;6.25;5.25;;;;;23.46;47.72;101771.41;5100534;27;45626;-59
2021/06/12 07:32:28;;;;;;;;;18.75;18.75;;;;;23.58;48.07;101777.06;5076700;27;45841;-57
2021/06/12 07:34:53;;;;;;;;;10.50;9.00;;;;;23.61;47.67;101767.06;5094651;27;45566;-58
2021/06/12 07:37:19;;;;;;;;;3.25;2.75;;;;;23.68;47.44;101779.19;5120370;27;45434;-58
2021/06/12 07:39:44;;;;;;;;;31.25;29.50;;;;;23.80;47.51;101785.72;5104435;27;46356;-58
2021/06/12 07:42:10;;;;;;;;;16.00;15.00;;;;;23.86;47.38;101788.06;5103984;27;45413;-54
2021/06/12 07:44:35;;;;;;;;;30.00;26.25;;;;;23.94;47.45;101795.75;5116126;27;45486;-54
2021/06/12 07:47:01;;;;;;;;;12.00;12.00;;;;;24.04;46.83;101797.91;5097493;27;45587;-57
2021/06/12 07:49:26;;;;;;;;;9.75;8.75;;;;;24.15;46.54;101806.25;5110288;27;45508;-47
2021/06/12 07:51:51;;;;;;;;;15.00;13.50;;;;;24.23;46.98;101803.16;5109164;27;45368;-52
2021/06/12 07:54:19;;;;;;;;;11.00;10.00;;;;;24.31;46.72;101804.47;5120505;27;45306;-51
2021/06/12 07:56:44;;;;;;;;;36.75;33.25;;;;;24.40;45.92;101803.09;5108658;27;45416;-53
2021/06/12 07:59:10;;;;;;;;;10.75;9.00;;;;;24.41;45.40;101807.47;5117746;27;45323;-53
2021/06/12 08:01:35;;;;;;;;;22.50;22.50;;;;;24.40;45.60;101796.84;5121452;27;45251;-48
2021/06/12 08:04:01;;;;;;;;;6.75;6.75;;;;;24.47;45.40;101803.59;5120727;27;45302;-53
2021/06/12 08:06:28;;;;;;;;;7.50;6.75;;;;;24.53;45.52;101805.94;5112061;27;45426;-56
2021/06/12 08:08:53;;;;;;;;;39.75;33.25;;;;;24.62;45.78;101808.09;5101231;27;46856;-53
2021/06/12 08:11:19;;;;;;;;;6.00;5.00;;;;;24.63;45.43;101798.25;5120692;27;45307;-57
2021/06/12 08:13:44;;;;;;;;;8.50;6.50;;;;;24.75;45.07;101813.66;5111156;27;45264;-56
2021/06/12 08:16:10;;;;;;;;;6.75;5.75;;;;;24.63;45.11;101800.91;5112298;27;45531;-61
2021/06/12 08:18:35;;;;;;;;;13.50;13.50;;;;;24.62;45.31;101804.56;5114761;27;46166;-53
2021/06/12 08:21:01;;;;;;;;;7.00;6.00;;;;;24.51;45.32;101807.84;5119863;27;45404;-52
2021/06/12 08:23:27;;;;;;;;;11.50;11.25;;;;;24.48;45.53;101818.78;5118681;27;45358;-50
2021/06/12 08:25:52;;;;;;;;;15.25;15.25;;;;;24.53;45.96;101823.88;5101950;27;45314;-52
2021/06/12 08:28:18;;;;;;;;;11.00;10.25;;;;;24.68;45.69;101820.38;5120367;27;45479;-50
2021/06/12 08:30:43;;;;;;;;;8.75;7.75;;;;;24.91;45.43;101826.25;5099583;27;45343;-48
2021/06/12 08:33:09;;;;;;;;;7.25;6.00;;;;;25.23;44.88;101818.97;5102371;27;45312;-49
2021/06/12 08:35:36;;;;;;;;;14.00;14.00;;;;;25.52;44.87;101810.13;5103560;27;45553;-48
2021/06/12 08:38:02;;;;;;;;;13.00;11.25;;;;;25.80;44.20;101807.47;5103311;27;45441;-48
2021/06/12 08:40:30;;;;;;;;;4.00;4.00;;;;;26.08;43.57;101815.69;5114951;27;45976;-49
2021/06/12 08:42:56;;;;;;;;;12.75;11.00;;;;;26.21;43.19;101819.34;5111969;27;45237;-50
2021/06/12 08:45:28;;;;;;;;;7.00;7.00;;;;;26.18;42.72;101822.22;5123735;27;45515;-50
2021/06/12 08:47:54;;;;;;;;;8.00;8.00;;;;;26.01;42.46;101819.69;5120796;27;46407;-48
2021/06/12 08:50:22;;;;;;;;;11.25;10.50;;;;;25.88;42.85;101824.97;5108368;27;45460;-50
2021/06/12 08:52:48;;;;;;;;;5.00;5.00;;;;;25.90;42.55;101834.69;5108758;27;45310;-47
2021/06/12 08:55:13;;;;;;;;;6.00;6.00;;;;;25.99;42.54;101837.75;5101802;27;45572;-50
2021/06/12 08:57:39;;;;;;;;;22.50;20.25;;;;;26.09;42.65;101838.97;5103038;27;46450;-49
2021/06/12 09:00:07;;;;;;;;;6.75;5.50;;;;;26.18;43.07;101832.13;5103256;27;45322;-48
2021/06/12 09:03:05;;;;;;;;;10.50;8.50;;;;;26.23;42.72;101841.66;5103278;27;45358;-47
2021/06/12 09:05:54;;;;;;;;;11.25;9.25;;;;;26.28;42.95;101852.13;5103187;27;45620;-47
2021/06/12 09:08:22;;;;;;;;;21.50;21.50;;;;;26.42;42.19;101845.88;5103030;27;47420;-49
2021/06/12 09:10:50;;;;;;;;;12.00;10.25;;;;;26.46;41.58;101849.22;5102939;27;45298;-48
2021/06/12 09:13:18;;;;;;;;;7.50;7.50;;;;;26.45;42.20;101845.66;5102880;27;45405;-52
2021/06/12 09:15:54;;;;;;;;;9.00;6.00;;;;;26.35;41.31;101848.09;5102696;27;45483;-51
2021/06/12 09:18:40;;;;;;;;;9.50;9.50;;;;;26.15;42.47;101841.28;5102730;27;45401;-47
2021/06/12 09:21:21;;;;;;;;;8.75;8.00;;;;;26.08;41.81;101830.00;5103137;27;45454;-48
2021/06/12 09:23:46;;;;;;;;;10.25;9.00;;;;;26.11;42.30;101843.31;5102121;27;45348;-50
2021/06/12 09:26:13;;;;;;;;;9.50;8.00;;;;;26.06;42.19;101845.41;5103081;27;45291;-48
2021/06/12 09:29:05;;;;;;;;;9.00;9.00;;;;;26.12;41.73;101849.53;5102855;27;47133;-46
2021/06/12 09:31:30;;;;;;;;;14.75;11.50;;;;;26.21;42.67;101846.28;5080521;27;45504;-46
2021/06/12 09:33:56;;;;;;;;;9.00;8.00;;;;;26.28;42.64;101849.44;5102792;27;45380;-49
2021/06/12 09:36:35;;;;;;;;;12.25;10.25;;;;;26.22;41.81;101855.22;5102756;27;45368;-47
2021/06/12 09:39:13;;;;;;;;;11.75;10.00;;;;;26.17;41.99;101849.25;5102610;27;46362;-50
2021/06/12 09:41:41;;;;;;;;;11.25;11.25;;;;;26.22;42.11;101849.84;5122678;27;45242;-52
2021/06/12 09:44:07;;;;;;;;;12.75;12.50;;;;;26.15;41.58;101843.09;5121741;27;45377;-48
2021/06/12 09:46:43;;;;;;;;;11.00;10.00;;;;;26.09;42.15;101852.44;5122945;27;45584;-49
2021/06/12 09:49:11;;;;;;;;;14.00;13.50;;;;;26.11;41.90;101845.09;5122871;27;46138;-52
2021/06/12 09:51:37;;;;;;;;;11.75;11.25;;;;;26.19;42.04;101847.31;5114400;27;45368;-47
2021/06/12 09:54:04;;;;;;;;;11.00;10.50;;;;;26.39;42.21;101837.97;5102595;27;45226;-46
2021/06/12 09:56:30;;;;;;;;;12.50;11.50;;;;;26.52;41.49;101851.53;5103044;27;45243;-48
2021/06/12 09:58:57;;;;;;;;;11.25;9.25;;;;;26.67;41.62;101849.69;5084007;27;47953;-47
2021/06/12 10:01:24;;;;;;;;;13.25;12.50;;;;;26.81;41.49;101844.28;5102537;27;45406;-49
2021/06/12 10:04:22;;;;;;;;;12.00;9.50;;;;;26.93;41.48;101850.69;5103013;27;45314;-49
2021/06/12 10:06:48;;;;;;;;;13.00;13.00;;;;;27.10;41.04;101846.84;5056759;27;45274;-49
2021/06/12 10:09:14;;;;;;;;;12.75;10.25;;;;;27.16;40.33;101848.28;5102010;27;46082;-51
2021/06/12 10:11:39;;;;;;;;;13.00;11.00;;;;;27.11;40.54;101863.91;5102040;27;45241;-47
2021/06/12 10:14:06;;;;;;;;;14.00;10.00;;;;;27.04;40.37;101860.75;5102682;27;45585;-50
2021/06/12 10:16:36;;;;;;;;;10.75;10.00;;;;;26.99;41.00;101844.00;5102981;27;45331;-48
2021/06/12 10:19:04;;;;;;;;;12.75;12.50;;;;;27.09;39.75;101845.13;5101808;27;46258;-50
2021/06/12 10:21:30;;;;;;;;;12.25;10.75;;;;;27.06;39.81;101846.19;5102647;27;45306;-50
2021/06/12 10:23:58;;;;;;;;;15.25;11.75;;;;;27.04;40.20;101848.16;5092709;27;45504;-48
2021/06/12 10:26:24;;;;;;;;;14.50;14.50;;;;;27.02;39.55;101851.88;5121237;27;45596;-52
2021/06/12 10:28:49;;;;;;;;;12.50;10.50;;;;;26.96;40.33;101838.84;5110535;27;45504;-48
2021/06/12 10:31:19;;;;;;;;;13.75;12.25;;;;;27.07;39.72;101844.38;5122293;27;45354;-50
2021/06/12 10:33:52;;;;;;;;;13.25;12.25;;;;;27.07;39.28;101847.06;5103272;27;45429;-52
2021/06/12 10:36:27;;;;;;;;;9.75;9.75;;;;;27.43;39.29;101847.41;5101745;27;45468;-49
2021/06/12 10:38:54;;;;;;;;;11.75;9.25;;;;;29.51;38.27;101848.59;5122492;27;46210;-50
2021/06/12 10:41:34;;;;;;;;;10.25;10.25;;;;;32.89;35.46;101856.47;5122108;27;45239;-51
2021/06/12 10:44:03;;;;;;;;;12.50;11.25;;;;;35.60;29.46;101857.44;5102892;27;45366;-51
2021/06/12 10:46:33;;;;;;;;;13.00;13.00;;;;;37.38;28.08;101854.78;5121675;27;45620;-50
2021/06/12 10:49:02;;;;;;;;;9.75;9.25;;;;;39.48;24.73;101868.00;5121255;27;45351;-52
2021/06/12 10:51:27;;;;;;;;;13.00;11.00;;;;;41.02;23.64;101871.97;5113075;27;45390;-52
2021/06/12 10:54:07;;;;;;;;;10.00;9.00;;;;;42.17;21.60;101866.22;5110062;27;45235;-50
2021/06/12 10:56:35;;;;;;;;;12.25;10.00;;;;;42.67;20.03;101878.91;5121884;27;45331;-51
2021/06/12 10:59:00;;;;;;;;;10.00;9.00;;;;;43.67;19.07;101883.69;5120354;27;45324;-50
2021/06/12 11:01:26;;;;;;;;;13.50;13.50;;;;;45.85;18.27;101880.00;5121000;27;45241;-54
2021/06/12 11:06:45;;;;;;;;;10.50;9.75;;;;;49.58;16.12;101884.47;5121845;27;45358;-53
2021/06/12 11:09:19;;;;;;;;;11.75;11.25;;;;;51.04;14.60;101885.81;5109610;27;46159;-51
2021/06/12 11:11:47;;;;;;;;;6.50;6.50;;;;;48.87;14.50;101888.66;5101832;27;45377;-52
2021/06/12 11:14:21;;;;;;;;;6.25;6.00;;;;;47.09;14.95;101890.97;5121599;27;45498;-53
2021/06/12 11:17:12;;;;;;;;;5.75;4.50;;;;;46.10;15.61;101881.84;5120582;27;45322;-54
2021/06/12 11:20:01;;;;;;;;;10.00;8.75;;;;;44.39;16.50;101882.84;5119976;27;46538;-52
2021/06/12 11:22:27;;;;;;;;;9.50;8.00;;;;;41.97;17.17;101879.06;5071101;27;45509;-54
2021/06/12 11:25:13;;;;;;;;;5.25;5.25;;;;;40.07;18.96;101876.53;5125810;27;45240;-53